Time,TemperatureF,DewpointF,PressureIn,WindDirection,WindDirectionDegrees,WindSpeedMPH,WindSpeedGustMPH,Humidity,HourlyPrecipIn,Conditions,Clouds,dailyrainin,SoftwareType,DateUTC
2013-01-22 00:02:00,23.2,13.1,30.35,NNE,23,0.0,0.0,65,0.00,,,0.00,meteohub,2013-01-22 06:02:00,
2013-01-22 00:07:00,23.2,13.1,30.35,ESE,113,0.0,0.0,65,0.00,,,0.00,meteohub,2013-01-22 06:07:00,
2013-01-22 00:12:00,23.2,13.1,30.35,East,90,0.0,0.0,65,0.00,,,0.00,meteohub,2013-01-22 06:12:00,
2013-01-22 00:17:00,23.2,13.1,30.35,NE,45,0.0,0.0,65,0.00,,,0.00,meteohub,2013-01-22 06:17:00,
2013-01-22 00:22:00,23.2,13.1,30.35,NNE,23,0.0,0.0,65,0.00,,,0.00,meteohub,2013-01-22 06:22:00,
2013-01-22 00:27:00,23.2,13.1,30.35,ENE,68,0.0,0.0,65,0.00,,,0.00,meteohub,2013-01-22 06:27:00,
2013-01-22 00:32:00,23.2,13.1,30.34,NNW,338,0.0,0.0,65,0.00,,,0.00,meteohub,2013-01-22 06:32:00,
2013-01-22 00:37:00,23.2,13.1,30.34,NW,315,0.0,0.0,65,0.00,,,0.00,meteohub,2013-01-22 06:37:00,
2013-01-22 00:42:00,23.5,13.5,30.34,NE,45,0.0,0.0,65,0.00,,,0.00,meteohub,2013-01-22 06:42:00,
2013-01-22 00:47:00,23.2,13.1,30.34,NNE,23,0.0,0.0,65,0.00,,,0.00,meteohub,2013-01-22 06:47:00,
2013-01-22 00:52:00,23.2,13.1,30.33,ENE,68,0.0,0.0,65,0.00,,,0.00,meteohub,2013-01-22 06:52:00,
2013-01-22 00:57:00,23.4,13.3,30.33,NE,45,0.0,0.0,65,0.00,,,0.00,meteohub,2013-01-22 06:57:00,
2013-01-22 01:02:00,23.5,13.5,30.33,NE,45,0.0,0.0,65,0.00,,,0.00,meteohub,2013-01-22 07:02:00,
2013-01-22 01:07:00,23.5,13.5,30.33,NNE,23,0.0,0.0,65,0.00,,,0.00,meteohub,2013-01-22 07:07:00,
2013-01-22 01:12:00,23.2,13.1,30.33,ENE,68,0.0,0.0,65,0.00,,,0.00,meteohub,2013-01-22 07:12:00,
2013-01-22 01:17:00,23.2,13.1,30.33,SSE,158,0.0,0.0,65,0.00,,,0.00,meteohub,2013-01-22 07:17:00,
2013-01-22 01:22:00,23.2,13.1,30.33,ENE,68,0.0,0.0,65,0.00,,,0.00,meteohub,2013-01-22 07:22:00,
2013-01-22 01:27:00,22.8,12.7,30.33,ESE,113,0.0,0.0,65,0.00,,,0.00,meteohub,2013-01-22 07:27:00,
2013-01-22 01:32:00,22.8,12.7,30.33,ENE,68,0.0,0.0,65,0.00,,,0.00,meteohub,2013-01-22 07:32:00,
2013-01-22 01:38:00,22.6,12.9,30.33,NNE,23,0.0,0.0,66,0.00,,,0.00,meteohub,2013-01-22 07:38:00,
2013-01-22 01:43:00,22.6,12.9,30.33,NNE,23,0.0,0.0,66,0.00,,,0.00,meteohub,2013-01-22 07:43:00,
2013-01-22 01:48:00,22.5,12.7,30.33,NNE,23,0.0,0.0,66,0.00,,,0.00,meteohub,2013-01-22 07:48:00,
2013-01-22 01:53:00,22.5,12.7,30.33,NNE,23,0.0,0.0,66,0.00,,,0.00,meteohub,2013-01-22 07:53:00,
2013-01-22 01:58:00,22.3,12.7,30.34,NNE,23,0.0,0.0,66,0.00,,,0.00,meteohub,2013-01-22 07:58:00,
2013-01-22 02:03:00,22.1,12.6,30.34,NNE,23,0.0,0.0,66,0.00,,,0.00,meteohub,2013-01-22 08:03:00,
2013-01-22 02:08:00,22.1,12.7,30.34,NNE,23,0.0,0.0,67,0.00,,,0.00,meteohub,2013-01-22 08:08:00,
2013-01-22 02:13:00,22.1,12.7,30.34,NNE,23,0.0,0.0,67,0.00,,,0.00,meteohub,2013-01-22 08:13:00,
2013-01-22 02:18:00,21.7,12.6,30.34,North,0,0.0,0.0,67,0.00,,,0.00,meteohub,2013-01-22 08:18:00,
2013-01-22 02:23:00,21.7,12.6,30.34,NNE,23,0.0,0.0,67,0.00,,,0.00,meteohub,2013-01-22 08:23:00,
2013-01-22 02:28:00,21.4,12.4,30.34,NNE,23,0.0,0.0,68,0.00,,,0.00,meteohub,2013-01-22 08:28:00,
2013-01-22 02:33:00,21.2,12.4,30.34,NNE,23,0.0,0.0,68,0.00,,,0.00,meteohub,2013-01-22 08:33:00,
2013-01-22 02:36:00,21.4,12.4,30.34,NNE,23,0.0,0.0,68,0.00,,,0.00,meteohub,2013-01-22 08:36:00,
2013-01-22 02:46:00,21.4,12.7,30.34,North,0,0.0,0.0,69,0.00,,,0.00,meteohub,2013-01-22 08:46:00,
2013-01-22 02:51:00,21.4,13.1,30.34,North,0,0.0,0.0,70,0.00,,,0.00,meteohub,2013-01-22 08:51:00,
2013-01-22 02:56:00,21.7,13.5,30.34,NNE,23,0.0,0.0,70,0.00,,,0.00,meteohub,2013-01-22 08:56:00,
2013-01-22 03:01:00,21.7,13.5,30.34,North,0,0.0,0.0,70,0.00,,,0.00,meteohub,2013-01-22 09:01:00,
2013-01-22 03:06:00,21.7,13.5,30.34,SW,225,0.0,0.0,70,0.00,,,0.00,meteohub,2013-01-22 09:06:00,
2013-01-22 03:11:00,21.7,13.5,30.32,NW,315,0.0,0.0,70,0.00,,,0.00,meteohub,2013-01-22 09:11:00,
2013-01-22 03:16:00,21.9,14.0,30.32,NNE,23,0.0,0.0,71,0.00,,,0.00,meteohub,2013-01-22 09:16:00,
2013-01-22 03:22:00,22.1,14.2,30.32,SE,135,0.0,0.0,71,0.00,,,0.00,meteohub,2013-01-22 09:22:00,
2013-01-22 03:27:00,22.1,14.2,30.32,South,180,0.0,0.0,71,0.00,,,0.00,meteohub,2013-01-22 09:27:00,
2013-01-22 03:32:00,22.5,14.5,30.32,NNE,23,0.0,0.0,71,0.00,,,0.00,meteohub,2013-01-22 09:32:00,
2013-01-22 03:37:00,22.5,14.5,30.32,NE,45,0.0,0.0,71,0.00,,,0.00,meteohub,2013-01-22 09:37:00,
2013-01-22 03:42:00,22.3,14.4,30.32,NE,45,0.0,0.0,71,0.00,,,0.00,meteohub,2013-01-22 09:42:00,
2013-01-22 03:47:00,22.5,14.5,30.32,NNE,23,0.0,0.0,71,0.00,,,0.00,meteohub,2013-01-22 09:47:00,
2013-01-22 03:52:00,22.5,14.5,30.33,ESE,113,0.0,0.0,71,0.00,,,0.00,meteohub,2013-01-22 09:52:00,
2013-01-22 03:57:00,22.5,14.5,30.33,NNE,23,0.0,0.0,71,0.00,,,0.00,meteohub,2013-01-22 09:57:00,
2013-01-22 04:02:00,22.5,14.5,30.33,NE,45,0.0,0.0,71,0.00,,,0.00,meteohub,2013-01-22 10:02:00,
2013-01-22 04:07:00,22.8,14.5,30.33,ESE,113,0.0,0.0,70,0.00,,,0.00,meteohub,2013-01-22 10:07:00,
2013-01-22 04:12:00,22.8,14.5,30.33,ENE,68,0.0,0.0,70,0.00,,,0.00,meteohub,2013-01-22 10:12:00,
2013-01-22 04:17:00,22.8,14.5,30.33,NNE,23,0.0,0.0,70,0.00,,,0.00,meteohub,2013-01-22 10:17:00,
2013-01-22 04:22:00,23.2,14.5,30.33,NNE,23,0.0,0.0,69,0.00,,,0.00,meteohub,2013-01-22 10:22:00,
2013-01-22 04:27:00,23.2,14.5,30.33,NNE,23,0.0,0.0,69,0.00,,,0.00,meteohub,2013-01-22 10:27:00,
2013-01-22 04:32:00,23.2,14.5,30.33,NNW,338,0.0,0.0,69,0.00,,,0.00,meteohub,2013-01-22 10:32:00,
2013-01-22 04:37:00,23.2,14.5,30.33,NE,45,0.0,0.0,69,0.00,,,0.00,meteohub,2013-01-22 10:37:00,
2013-01-22 04:42:00,23.2,14.5,30.33,NE,45,0.0,0.0,69,0.00,,,0.00,meteohub,2013-01-22 10:42:00,
2013-01-22 04:47:00,23.2,14.5,30.33,NE,45,0.0,0.0,69,0.00,,,0.00,meteohub,2013-01-22 10:47:00,
2013-01-22 04:52:00,23.2,14.5,30.33,SE,135,0.0,0.0,69,0.00,,,0.00,meteohub,2013-01-22 10:52:00,
2013-01-22 04:57:00,23.2,14.5,30.33,North,0,0.0,0.0,69,0.00,,,0.00,meteohub,2013-01-22 10:57:00,
2013-01-22 05:02:00,23.2,14.5,30.33,NNE,23,0.0,0.0,69,0.00,,,0.00,meteohub,2013-01-22 11:02:00,
2013-01-22 05:07:00,23.2,14.2,30.33,NNE,23,0.0,0.0,68,0.00,,,0.00,meteohub,2013-01-22 11:07:00,
2013-01-22 05:12:00,23.2,14.2,30.32,North,0,0.0,0.0,68,0.00,,,0.00,meteohub,2013-01-22 11:12:00,
2013-01-22 05:15:00,23.2,14.2,30.32,NE,45,0.0,0.0,68,0.00,,,0.00,meteohub,2013-01-22 11:15:00,
2013-01-22 05:17:00,23.2,14.2,30.32,North,0,0.0,0.0,68,0.00,,,0.00,meteohub,2013-01-22 11:17:00,
2013-01-22 05:27:00,23.2,14.2,30.32,East,90,0.0,2.0,68,0.00,,,0.00,meteohub,2013-01-22 11:27:00,
2013-01-22 05:32:00,23.2,13.8,30.32,NE,45,0.0,2.0,67,0.00,,,0.00,meteohub,2013-01-22 11:32:00,
2013-01-22 05:37:00,23.2,13.8,30.32,ENE,68,0.0,2.0,67,0.00,,,0.00,meteohub,2013-01-22 11:37:00,
2013-01-22 05:42:00,22.8,13.5,30.32,NE,45,0.0,0.0,67,0.00,,,0.00,meteohub,2013-01-22 11:42:00,
2013-01-22 05:47:00,22.6,13.3,30.32,SE,135,0.0,0.0,67,0.00,,,0.00,meteohub,2013-01-22 11:47:00,
2013-01-22 05:52:00,22.5,13.1,30.32,ESE,113,0.0,0.0,67,0.00,,,0.00,meteohub,2013-01-22 11:52:00,
2013-01-22 05:57:00,22.5,13.1,30.32,ENE,68,0.0,0.0,67,0.00,,,0.00,meteohub,2013-01-22 11:57:00,
2013-01-22 06:02:00,22.5,13.1,30.32,ENE,68,0.0,0.0,67,0.00,,,0.00,meteohub,2013-01-22 12:02:00,
2013-01-22 06:07:00,22.1,12.7,30.32,ENE,68,0.0,0.0,67,0.00,,,0.00,meteohub,2013-01-22 12:07:00,
2013-01-22 06:12:00,22.1,12.7,30.33,East,90,0.0,0.0,67,0.00,,,0.00,meteohub,2013-01-22 12:12:00,
2013-01-22 06:17:00,21.9,12.6,30.33,ESE,113,0.0,0.0,67,0.00,,,0.00,meteohub,2013-01-22 12:17:00,
2013-01-22 06:22:00,21.7,12.7,30.33,ESE,113,0.0,0.0,68,0.00,,,0.00,meteohub,2013-01-22 12:22:00,
2013-01-22 06:27:00,21.7,12.7,30.33,ESE,113,0.0,0.0,68,0.00,,,0.00,meteohub,2013-01-22 12:27:00,
2013-01-22 06:32:00,21.2,12.4,30.35,ENE,68,0.0,0.0,68,0.00,,,0.00,meteohub,2013-01-22 12:32:00,
2013-01-22 06:37:00,21.0,12.2,30.35,ENE,68,0.0,0.0,68,0.00,,,0.00,meteohub,2013-01-22 12:37:00,
2013-01-22 06:42:00,21.0,12.2,30.35,ENE,68,0.0,0.0,68,0.00,,,0.00,meteohub,2013-01-22 12:42:00,
2013-01-22 06:47:00,20.8,12.0,30.35,ESE,113,0.0,0.0,68,0.00,,,0.00,meteohub,2013-01-22 12:47:00,
2013-01-22 06:52:00,20.7,12.0,30.36,ESE,113,0.0,0.0,69,0.00,,,0.00,meteohub,2013-01-22 12:52:00,
2013-01-22 06:58:00,20.5,12.0,30.36,East,90,0.0,0.0,69,0.00,,,0.00,meteohub,2013-01-22 12:58:00,
2013-01-22 07:03:00,20.3,11.8,30.36,ENE,68,0.0,0.0,69,0.00,,,0.00,meteohub,2013-01-22 13:03:00,
2013-01-22 07:08:00,20.3,11.8,30.36,ESE,113,1.0,0.0,69,0.00,,,0.00,meteohub,2013-01-22 13:08:00,
2013-01-22 07:13:00,20.3,11.8,30.37,ESE,113,2.0,0.0,69,0.00,,,0.00,meteohub,2013-01-22 13:13:00,
2013-01-22 07:18:00,20.5,12.0,30.37,SE,135,0.0,2.0,69,0.00,,,0.00,meteohub,2013-01-22 13:18:00,
2013-01-22 07:23:00,20.7,12.0,30.37,ENE,68,0.0,3.0,69,0.00,,,0.00,meteohub,2013-01-22 13:23:00,
2013-01-22 07:28:00,20.7,12.0,30.36,ESE,113,0.0,3.0,69,0.00,,,0.00,meteohub,2013-01-22 13:28:00,
2013-01-22 07:33:00,20.5,11.7,30.36,ENE,68,0.0,3.0,68,0.00,,,0.00,meteohub,2013-01-22 13:33:00,
2013-01-22 07:38:00,20.5,11.7,30.36,ENE,68,0.0,1.0,68,0.00,,,0.00,meteohub,2013-01-22 13:38:00,
2013-01-22 07:43:00,20.7,11.8,30.36,NE,45,0.0,1.0,68,0.00,,,0.00,meteohub,2013-01-22 13:43:00,
2013-01-22 07:48:00,20.7,11.8,30.36,East,90,0.0,0.0,68,0.00,,,0.00,meteohub,2013-01-22 13:48:00,
2013-01-22 07:53:00,20.3,11.5,30.36,SE,135,0.0,0.0,68,0.00,,,0.00,meteohub,2013-01-22 13:53:00,
2013-01-22 07:58:00,20.5,11.7,30.36,East,90,0.0,0.0,68,0.00,,,0.00,meteohub,2013-01-22 13:58:00,
2013-01-22 08:03:00,20.7,11.8,30.36,ENE,68,0.0,0.0,68,0.00,,,0.00,meteohub,2013-01-22 14:03:00,
2013-01-22 08:08:00,21.0,12.4,30.37,SE,135,1.0,0.0,69,0.00,,,0.00,meteohub,2013-01-22 14:08:00,
2013-01-22 08:13:00,21.0,12.4,30.37,SW,225,0.0,1.0,69,0.00,,,0.00,meteohub,2013-01-22 14:13:00,
2013-01-22 08:18:00,21.7,12.7,30.37,ENE,68,3.0,3.0,68,0.00,,,0.00,meteohub,2013-01-22 14:18:00,
2013-01-22 08:23:00,21.7,12.7,30.37,ESE,113,1.0,4.0,68,0.00,,,0.00,meteohub,2013-01-22 14:23:00,
2013-01-22 08:28:00,22.1,13.1,30.36,SE,135,1.0,4.0,68,0.00,,,0.00,meteohub,2013-01-22 14:28:00,
2013-01-22 08:33:00,22.1,13.1,30.36,SE,135,2.0,4.0,68,0.00,,,0.00,meteohub,2013-01-22 14:33:00,
2013-01-22 08:38:00,22.8,13.8,30.36,SE,135,0.0,4.0,68,0.00,,,0.00,meteohub,2013-01-22 14:38:00,
2013-01-22 08:43:00,23.4,14.4,30.36,SE,135,2.0,4.0,68,0.00,,,0.00,meteohub,2013-01-22 14:43:00,
2013-01-22 08:48:00,23.9,14.5,30.34,East,90,3.0,3.0,67,0.00,,,0.00,meteohub,2013-01-22 14:48:00,
2013-01-22 08:54:00,24.3,14.9,30.34,SE,135,7.0,7.0,67,0.00,,,0.00,meteohub,2013-01-22 14:54:00,
2013-01-22 08:59:00,25.0,15.3,30.34,ESE,113,3.0,6.0,66,0.00,,,0.00,meteohub,2013-01-22 14:59:00,
2013-01-22 09:04:00,25.3,15.6,30.34,SSE,158,0.0,7.0,66,0.00,,,0.00,meteohub,2013-01-22 15:04:00,
2013-01-22 09:09:00,26.1,15.6,30.34,ESE,113,3.0,7.0,64,0.00,,,0.00,meteohub,2013-01-22 15:09:00,
2013-01-22 09:14:00,26.2,15.8,30.34,ENE,68,6.0,6.0,64,0.00,,,0.00,meteohub,2013-01-22 15:14:00,
2013-01-22 09:19:00,26.4,16.0,30.34,SW,225,3.0,6.0,64,0.00,,,0.00,meteohub,2013-01-22 15:19:00,
2013-01-22 09:24:00,27.1,16.2,30.34,ENE,68,4.0,6.0,63,0.00,,,0.00,meteohub,2013-01-22 15:24:00,
2013-01-22 09:29:00,27.0,16.0,30.35,SE,135,6.0,6.0,63,0.00,,,0.00,meteohub,2013-01-22 15:29:00,
2013-01-22 09:34:00,27.5,16.2,30.35,SE,135,2.0,4.0,62,0.00,,,0.00,meteohub,2013-01-22 15:34:00,
2013-01-22 09:39:00,27.9,16.5,30.35,ESE,113,5.0,6.0,62,0.00,,,0.00,meteohub,2013-01-22 15:39:00,
2013-01-22 09:44:00,28.2,16.5,30.35,ESE,113,6.0,6.0,61,0.00,,,0.00,meteohub,2013-01-22 15:44:00,
2013-01-22 09:49:00,28.6,16.2,30.39,SSE,158,8.0,8.0,59,0.00,,,0.00,meteohub,2013-01-22 15:49:00,
2013-01-22 09:54:00,28.2,15.8,30.39,SSE,158,6.0,6.0,59,0.00,,,0.00,meteohub,2013-01-22 15:54:00,
2013-01-22 09:59:00,28.2,15.8,30.39,SE,135,4.0,8.0,59,0.00,,,0.00,meteohub,2013-01-22 15:59:00,
2013-01-22 10:04:00,28.2,15.8,30.39,ESE,113,4.0,8.0,59,0.00,,,0.00,meteohub,2013-01-22 16:04:00,
2013-01-22 10:09:00,28.2,15.8,30.39,SE,135,2.0,8.0,59,0.00,,,0.00,meteohub,2013-01-22 16:09:00,
2013-01-22 10:14:00,28.2,15.8,30.39,SE,135,2.0,6.0,59,0.00,,,0.00,meteohub,2013-01-22 16:14:00,
2013-01-22 10:19:00,28.2,15.8,30.39,SE,135,5.0,6.0,59,0.00,,,0.00,meteohub,2013-01-22 16:19:00,
2013-01-22 10:24:00,28.2,15.8,30.39,WSW,248,3.0,6.0,59,0.00,,,0.00,meteohub,2013-01-22 16:24:00,
2013-01-22 10:29:00,28.6,16.2,30.36,ESE,113,3.0,5.0,59,0.00,,,0.00,meteohub,2013-01-22 16:29:00,
2013-01-22 10:34:00,28.4,16.0,30.36,SSW,203,3.0,5.0,59,0.00,,,0.00,meteohub,2013-01-22 16:34:00,
2013-01-22 10:39:00,28.6,16.2,30.36,ESE,113,6.0,6.0,59,0.00,,,0.00,meteohub,2013-01-22 16:39:00,
2013-01-22 10:44:00,28.4,16.0,30.36,SE,135,4.0,4.0,59,0.00,,,0.00,meteohub,2013-01-22 16:44:00,
2013-01-22 10:49:00,28.4,16.0,30.35,ESE,113,2.0,6.0,59,0.00,,,0.00,meteohub,2013-01-22 16:49:00,
2013-01-22 10:54:00,28.6,16.2,30.35,East,90,3.0,6.0,59,0.00,,,0.00,meteohub,2013-01-22 16:54:00,
2013-01-22 10:59:00,28.6,16.2,30.35,East,90,3.0,6.0,59,0.00,,,0.00,meteohub,2013-01-22 16:59:00,
2013-01-22 11:04:00,28.9,16.3,30.35,SE,135,2.0,4.0,59,0.00,,,0.00,meteohub,2013-01-22 17:04:00,
2013-01-22 11:09:00,28.9,16.3,30.37,North,0,3.0,3.0,59,0.00,,,0.00,meteohub,2013-01-22 17:09:00,
2013-01-22 11:14:00,28.9,16.3,30.37,ENE,68,4.0,4.0,59,0.00,,,0.00,meteohub,2013-01-22 17:14:00,
2013-01-22 11:19:00,28.9,16.0,30.37,SE,135,4.0,4.0,58,0.00,,,0.00,meteohub,2013-01-22 17:19:00,
2013-01-22 11:24:00,29.3,16.7,30.37,SE,135,3.0,5.0,59,0.00,,,0.00,meteohub,2013-01-22 17:24:00,
2013-01-22 11:29:00,29.3,16.7,30.35,ESE,113,5.0,5.0,59,0.00,,,0.00,meteohub,2013-01-22 17:29:00,
2013-01-22 11:34:00,29.3,16.3,30.35,ESE,113,2.0,5.0,58,0.00,,,0.00,meteohub,2013-01-22 17:34:00,
2013-01-22 11:40:00,29.7,16.7,30.35,SE,135,4.0,5.0,58,0.00,,,0.00,meteohub,2013-01-22 17:40:00,
2013-01-22 11:45:00,29.7,16.7,30.35,East,90,3.0,5.0,58,0.00,,,0.00,meteohub,2013-01-22 17:45:00,
2013-01-22 11:50:00,30.0,17.1,30.35,SE,135,2.0,5.0,58,0.00,,,0.00,meteohub,2013-01-22 17:50:00,
2013-01-22 11:55:00,30.0,17.1,30.35,SE,135,4.0,5.0,58,0.00,,,0.00,meteohub,2013-01-22 17:55:00,
2013-01-22 12:00:00,30.4,17.4,30.35,ESE,113,3.0,3.0,58,0.00,,,0.00,meteohub,2013-01-22 18:00:00,
2013-01-22 12:05:00,30.4,17.4,30.35,SE,135,1.0,4.0,58,0.00,,,0.00,meteohub,2013-01-22 18:05:00,
2013-01-22 12:10:00,30.7,17.8,30.33,ESE,113,2.0,3.0,58,0.00,,,0.00,meteohub,2013-01-22 18:10:00,
2013-01-22 12:15:00,30.7,17.2,30.33,SE,135,4.0,4.0,57,0.00,,,0.00,meteohub,2013-01-22 18:15:00,
2013-01-22 12:20:00,30.7,17.2,30.33,SSE,158,0.0,3.0,57,0.00,,,0.00,meteohub,2013-01-22 18:20:00,
2013-01-22 12:25:00,31.1,17.6,30.33,SE,135,3.0,5.0,57,0.00,,,0.00,meteohub,2013-01-22 18:25:00,
2013-01-22 12:30:00,30.9,17.4,30.30,ESE,113,6.0,6.0,57,0.00,,,0.00,meteohub,2013-01-22 18:30:00,
2013-01-22 12:35:00,31.1,17.2,30.30,ENE,68,4.0,6.0,56,0.00,,,0.00,meteohub,2013-01-22 18:35:00,
2013-01-22 12:40:00,31.1,17.2,30.30,SE,135,3.0,6.0,56,0.00,,,0.00,meteohub,2013-01-22 18:40:00,
2013-01-22 12:45:00,31.1,17.6,30.30,ENE,68,2.0,6.0,57,0.00,,,0.00,meteohub,2013-01-22 18:45:00,
2013-01-22 12:50:00,31.3,17.8,30.30,SW,225,0.0,3.0,57,0.00,,,0.00,meteohub,2013-01-22 18:50:00,
2013-01-22 12:55:00,31.5,17.6,30.30,ESE,113,3.0,5.0,56,0.00,,,0.00,meteohub,2013-01-22 18:55:00,
2013-01-22 13:00:00,31.5,17.6,30.30,East,90,2.0,5.0,56,0.00,,,0.00,meteohub,2013-01-22 19:00:00,
2013-01-22 13:05:00,31.8,18.0,30.30,SE,135,4.0,5.0,56,0.00,,,0.00,meteohub,2013-01-22 19:05:00,
2013-01-22 13:10:00,31.8,18.0,30.30,SSE,158,2.0,5.0,56,0.00,,,0.00,meteohub,2013-01-22 19:10:00,
2013-01-22 13:15:00,31.6,17.8,30.30,ESE,113,2.0,5.0,56,0.00,,,0.00,meteohub,2013-01-22 19:15:00,
2013-01-22 13:20:00,32.2,18.3,30.30,ESE,113,5.0,5.0,56,0.00,,,0.00,meteohub,2013-01-22 19:20:00,
2013-01-22 13:25:00,32.0,18.1,30.30,SE,135,2.0,5.0,56,0.00,,,0.00,meteohub,2013-01-22 19:25:00,
2013-01-22 13:30:00,32.2,17.8,30.27,NNE,23,4.0,5.0,55,0.00,,,0.00,meteohub,2013-01-22 19:30:00,
2013-01-22 13:35:00,32.2,18.3,30.27,ESE,113,2.0,5.0,56,0.00,,,0.00,meteohub,2013-01-22 19:35:00,
2013-01-22 13:40:00,32.5,18.5,30.27,SSE,158,2.0,5.0,56,0.00,,,0.00,meteohub,2013-01-22 19:40:00,
2013-01-22 13:45:00,32.5,18.5,30.27,SE,135,3.0,4.0,56,0.00,,,0.00,meteohub,2013-01-22 19:45:00,
2013-01-22 13:50:00,32.5,18.1,30.27,SE,135,2.0,3.0,55,0.00,,,0.00,meteohub,2013-01-22 19:50:00,
2013-01-22 13:55:00,32.5,18.1,30.27,SSE,158,0.0,4.0,55,0.00,,,0.00,meteohub,2013-01-22 19:55:00,
2013-01-22 14:00:00,32.7,18.3,30.27,SE,135,3.0,4.0,55,0.00,,,0.00,meteohub,2013-01-22 20:00:00,
2013-01-22 14:05:00,32.7,18.3,30.27,South,180,2.0,3.0,55,0.00,,,0.00,meteohub,2013-01-22 20:05:00,
2013-01-22 14:10:00,32.5,17.8,30.25,ESE,113,3.0,3.0,54,0.00,,,0.00,meteohub,2013-01-22 20:10:00,
2013-01-22 14:15:00,32.7,18.3,30.25,SE,135,2.0,4.0,55,0.00,,,0.00,meteohub,2013-01-22 20:15:00,
2013-01-22 14:20:00,32.7,18.3,30.25,SE,135,2.0,4.0,55,0.00,,,0.00,meteohub,2013-01-22 20:20:00,
2013-01-22 14:25:00,32.7,18.0,30.25,ESE,113,2.0,3.0,54,0.00,,,0.00,meteohub,2013-01-22 20:25:00,
2013-01-22 14:30:00,32.9,18.5,30.25,East,90,0.0,3.0,55,0.00,,,0.00,meteohub,2013-01-22 20:30:00,
2013-01-22 14:35:00,32.7,18.3,30.25,SE,135,2.0,3.0,55,0.00,,,0.00,meteohub,2013-01-22 20:35:00,
2013-01-22 14:40:00,32.9,18.1,30.25,SE,135,2.0,3.0,54,0.00,,,0.00,meteohub,2013-01-22 20:40:00,
2013-01-22 14:45:00,32.9,18.1,30.25,ESE,113,5.0,5.0,54,0.00,,,0.00,meteohub,2013-01-22 20:45:00,
2013-01-22 14:51:00,32.9,18.1,30.26,ESE,113,4.0,5.0,54,0.00,,,0.00,meteohub,2013-01-22 20:51:00,
2013-01-22 14:56:00,32.9,18.1,30.26,East,90,5.0,5.0,54,0.00,,,0.00,meteohub,2013-01-22 20:56:00,
2013-01-22 15:01:00,32.9,18.5,30.26,SE,135,2.0,5.0,55,0.00,,,0.00,meteohub,2013-01-22 21:01:00,
2013-01-22 15:06:00,33.1,18.3,30.26,ENE,68,4.0,5.0,54,0.00,,,0.00,meteohub,2013-01-22 21:06:00,
2013-01-22 15:11:00,33.1,18.3,30.25,North,0,0.0,5.0,54,0.00,,,0.00,meteohub,2013-01-22 21:11:00,
2013-01-22 15:16:00,33.3,18.5,30.25,SE,135,3.0,5.0,54,0.00,,,0.00,meteohub,2013-01-22 21:16:00,
2013-01-22 15:21:00,33.4,19.0,30.25,SE,135,2.0,5.0,55,0.00,,,0.00,meteohub,2013-01-22 21:21:00,
2013-01-22 15:26:00,33.4,19.0,30.25,SE,135,2.0,6.0,55,0.00,,,0.00,meteohub,2013-01-22 21:26:00,
2013-01-22 15:32:00,33.6,19.2,30.24,SSE,158,3.0,6.0,55,0.00,,,0.00,meteohub,2013-01-22 21:32:00,
2013-01-22 15:37:00,33.6,19.2,30.24,SE,135,4.0,4.0,55,0.00,,,0.00,meteohub,2013-01-22 21:37:00,
2013-01-22 15:42:00,33.8,19.4,30.24,SSE,158,2.0,4.0,55,0.00,,,0.00,meteohub,2013-01-22 21:42:00,
2013-01-22 15:47:00,34.0,19.6,30.24,SE,135,6.0,6.0,55,0.00,,,0.00,meteohub,2013-01-22 21:47:00,
2013-01-22 15:52:00,34.0,19.6,30.23,SE,135,2.0,6.0,55,0.00,,,0.00,meteohub,2013-01-22 21:52:00,
2013-01-22 15:57:00,34.0,19.6,30.23,SE,135,2.0,6.0,55,0.00,,,0.00,meteohub,2013-01-22 21:57:00,
2013-01-22 16:02:00,34.2,19.8,30.23,SSE,158,0.0,6.0,55,0.00,,,0.00,meteohub,2013-01-22 22:02:00,
2013-01-22 16:07:00,34.3,19.8,30.23,SSE,158,2.0,3.0,55,0.00,,,0.00,meteohub,2013-01-22 22:07:00,
2013-01-22 16:12:00,34.3,19.8,30.27,ESE,113,2.0,3.0,55,0.00,,,0.00,meteohub,2013-01-22 22:12:00,
2013-01-22 16:17:00,34.2,19.8,30.27,SE,135,0.0,3.0,55,0.00,,,0.00,meteohub,2013-01-22 22:17:00,
2013-01-22 16:22:00,34.3,19.8,30.27,South,180,0.0,2.0,55,0.00,,,0.00,meteohub,2013-01-22 22:22:00,
2013-01-22 16:27:00,34.3,19.8,30.27,SSE,158,1.0,2.0,55,0.00,,,0.00,meteohub,2013-01-22 22:27:00,
2013-01-22 16:32:00,34.2,19.8,30.24,SE,135,4.0,4.0,55,0.00,,,0.00,meteohub,2013-01-22 22:32:00,
2013-01-22 16:37:00,34.2,19.8,30.24,SE,135,0.0,4.0,55,0.00,,,0.00,meteohub,2013-01-22 22:37:00,
2013-01-22 16:42:00,34.0,19.6,30.24,SE,135,2.0,5.0,55,0.00,,,0.00,meteohub,2013-01-22 22:42:00,
2013-01-22 16:48:00,34.0,19.6,30.24,ESE,113,0.0,5.0,55,0.00,,,0.00,meteohub,2013-01-22 22:48:00,
2013-01-22 16:53:00,34.0,19.6,30.25,ESE,113,0.0,5.0,55,0.00,,,0.00,meteohub,2013-01-22 22:53:00,
2013-01-22 16:58:00,34.0,19.6,30.25,ESE,113,0.0,3.0,55,0.00,,,0.00,meteohub,2013-01-22 22:58:00,
2013-01-22 17:03:00,34.0,19.6,30.25,ESE,113,0.0,0.0,55,0.00,,,0.00,meteohub,2013-01-22 23:03:00,
2013-01-22 17:08:00,33.8,19.4,30.25,North,-999,-999.0,0.0,55,0.00,,,0.00,meteohub,2013-01-22 23:08:00,
2013-01-22 17:13:00,33.6,19.2,30.27,North,-999,-999.0,0.0,55,0.00,,,0.00,meteohub,2013-01-22 23:13:00,
2013-01-22 17:18:00,33.4,19.0,30.27,North,-999,-999.0,-999.0,55,0.00,,,0.00,meteohub,2013-01-22 23:18:00,
2013-01-22 17:23:00,33.3,19.2,30.27,North,-999,-999.0,-999.0,56,0.00,,,0.00,meteohub,2013-01-22 23:23:00,
2013-01-22 17:28:00,32.9,18.9,30.25,North,-999,-999.0,-999.0,56,0.00,,,0.00,meteohub,2013-01-22 23:28:00,
2013-01-22 17:33:00,32.9,18.9,30.25,SE,135,0.0,-999.0,56,0.00,,,0.00,meteohub,2013-01-22 23:33:00,
2013-01-22 17:38:00,32.7,18.7,30.25,SE,135,0.0,0.0,56,0.00,,,0.00,meteohub,2013-01-22 23:38:00,
2013-01-22 17:43:00,32.5,18.5,30.25,SE,135,0.0,0.0,56,0.00,,,0.00,meteohub,2013-01-22 23:43:00,
2013-01-22 17:48:00,32.2,18.7,30.25,ESE,113,0.0,0.0,57,0.00,,,0.00,meteohub,2013-01-22 23:48:00,
2013-01-22 17:53:00,31.8,18.3,30.26,ESE,113,2.0,0.0,57,0.00,,,0.00,meteohub,2013-01-22 23:53:00,
2013-01-22 17:58:00,31.5,18.0,30.26,ESE,113,0.0,2.0,57,0.00,,,0.00,meteohub,2013-01-22 23:58:00,
2013-01-22 18:03:00,31.1,17.6,30.26,SE,135,0.0,2.0,57,0.00,,,0.00,meteohub,2013-01-23 00:03:00,
2013-01-22 18:08:00,30.7,17.2,30.25,ESE,113,0.0,2.0,57,0.00,,,0.00,meteohub,2013-01-23 00:08:00,
2013-01-22 18:13:00,30.7,17.8,30.25,East,90,0.0,0.0,58,0.00,,,0.00,meteohub,2013-01-23 00:13:00,
2013-01-22 18:18:00,30.4,17.4,30.25,East,90,0.0,0.0,58,0.00,,,0.00,meteohub,2013-01-23 00:18:00,
2013-01-22 18:23:00,30.2,17.2,30.25,ESE,113,0.0,0.0,58,0.00,,,0.00,meteohub,2013-01-23 00:23:00,
2013-01-22 18:28:00,30.0,17.4,30.25,SE,135,0.0,0.0,59,0.00,,,0.00,meteohub,2013-01-23 00:28:00,
2013-01-22 18:33:00,30.0,17.4,30.25,East,90,0.0,2.0,59,0.00,,,0.00,meteohub,2013-01-23 00:33:00,
2013-01-22 18:38:00,30.0,17.4,30.25,SE,135,0.0,2.0,59,0.00,,,0.00,meteohub,2013-01-23 00:38:00,
2013-01-22 18:43:00,30.0,17.4,30.25,ESE,113,0.0,2.0,59,0.00,,,0.00,meteohub,2013-01-23 00:43:00,
2013-01-22 18:48:00,30.0,17.4,30.26,ESE,113,0.0,2.0,59,0.00,,,0.00,meteohub,2013-01-23 00:48:00,
2013-01-22 18:54:00,29.7,17.4,30.26,SE,135,0.0,0.0,60,0.00,,,0.00,meteohub,2013-01-23 00:54:00,
2013-01-22 18:59:00,29.7,17.4,30.26,SE,135,0.0,0.0,60,0.00,,,0.00,meteohub,2013-01-23 00:59:00,
2013-01-22 19:04:00,29.3,17.1,30.26,SE,135,0.0,0.0,60,0.00,,,0.00,meteohub,2013-01-23 01:04:00,
2013-01-22 19:09:00,28.9,16.9,30.27,ESE,113,0.0,0.0,60,0.00,,,0.00,meteohub,2013-01-23 01:09:00,
2013-01-22 19:14:00,28.9,16.9,30.27,East,90,0.0,0.0,60,0.00,,,0.00,meteohub,2013-01-23 01:14:00,
2013-01-22 19:19:00,28.9,17.2,30.27,SE,135,0.0,0.0,61,0.00,,,0.00,meteohub,2013-01-23 01:19:00,
2013-01-22 19:24:00,28.6,16.9,30.27,South,180,0.0,0.0,61,0.00,,,0.00,meteohub,2013-01-23 01:24:00,
2013-01-22 19:29:00,28.6,16.9,30.29,South,180,0.0,0.0,61,0.00,,,0.00,meteohub,2013-01-23 01:29:00,
2013-01-22 19:34:00,28.2,16.5,30.29,SE,135,0.0,0.0,61,0.00,,,0.00,meteohub,2013-01-23 01:34:00,
2013-01-22 19:39:00,27.9,16.5,30.29,ESE,113,0.0,0.0,62,0.00,,,0.00,meteohub,2013-01-23 01:39:00,
2013-01-22 19:44:00,27.7,16.3,30.29,ESE,113,0.0,0.0,62,0.00,,,0.00,meteohub,2013-01-23 01:44:00,
2013-01-22 19:49:00,27.5,16.2,30.29,ESE,113,0.0,0.0,62,0.00,,,0.00,meteohub,2013-01-23 01:49:00,
2013-01-22 19:54:00,27.5,16.2,30.29,NW,315,0.0,0.0,62,0.00,,,0.00,meteohub,2013-01-23 01:54:00,
2013-01-22 19:59:00,27.1,15.8,30.29,NE,45,0.0,0.0,62,0.00,,,0.00,meteohub,2013-01-23 01:59:00,
2013-01-22 20:04:00,27.1,15.8,30.29,NW,315,0.0,0.0,62,0.00,,,0.00,meteohub,2013-01-23 02:04:00,
2013-01-22 20:09:00,26.8,15.8,30.30,SE,135,0.0,0.0,63,0.00,,,0.00,meteohub,2013-01-23 02:09:00,
2013-01-22 20:14:00,26.2,15.4,30.30,ESE,113,0.0,0.0,63,0.00,,,0.00,meteohub,2013-01-23 02:14:00,
2013-01-22 20:19:00,26.1,15.6,30.30,WSW,248,0.0,0.0,64,0.00,,,0.00,meteohub,2013-01-23 02:19:00,
2013-01-22 20:24:00,26.1,15.6,30.30,South,180,0.0,0.0,64,0.00,,,0.00,meteohub,2013-01-23 02:24:00,
2013-01-22 20:29:00,25.5,15.1,30.32,South,180,0.0,0.0,64,0.00,,,0.00,meteohub,2013-01-23 02:29:00,
2013-01-22 20:34:00,25.7,15.3,30.32,NW,315,0.0,0.0,64,0.00,,,0.00,meteohub,2013-01-23 02:34:00,
2013-01-22 20:39:00,25.3,14.9,30.32,WSW,248,0.0,0.0,64,0.00,,,0.00,meteohub,2013-01-23 02:39:00,
2013-01-22 20:44:00,25.3,15.3,30.32,WSW,248,0.0,0.0,65,0.00,,,0.00,meteohub,2013-01-23 02:44:00,
2013-01-22 20:49:00,25.3,15.3,30.32,NNW,338,0.0,0.0,65,0.00,,,0.00,meteohub,2013-01-23 02:49:00,
2013-01-22 20:54:00,25.0,15.3,30.32,South,180,0.0,0.0,66,0.00,,,0.00,meteohub,2013-01-23 02:54:00,
2013-01-22 20:59:00,25.0,15.3,30.32,WSW,248,0.0,0.0,66,0.00,,,0.00,meteohub,2013-01-23 02:59:00,
2013-01-22 21:04:00,25.0,15.3,30.32,NE,45,0.0,0.0,66,0.00,,,0.00,meteohub,2013-01-23 03:04:00,
2013-01-22 21:09:00,25.0,15.3,30.32,NE,45,0.0,0.0,66,0.00,,,0.00,meteohub,2013-01-23 03:09:00,
2013-01-22 21:14:00,25.0,15.3,30.32,SW,225,0.0,0.0,66,0.00,,,0.00,meteohub,2013-01-23 03:14:00,
2013-01-22 21:19:00,25.0,15.3,30.32,SW,225,0.0,0.0,66,0.00,,,0.00,meteohub,2013-01-23 03:19:00,
2013-01-22 21:24:00,25.0,15.3,30.32,SW,225,0.0,0.0,66,0.00,,,0.00,meteohub,2013-01-23 03:24:00,
2013-01-22 21:29:00,24.8,15.1,30.32,West,270,0.0,0.0,66,0.00,,,0.00,meteohub,2013-01-23 03:29:00,
2013-01-22 21:34:00,24.8,15.1,30.32,SSW,203,0.0,1.0,66,0.00,,,0.00,meteohub,2013-01-23 03:34:00,
2013-01-22 21:39:00,24.8,15.4,30.32,West,270,0.0,1.0,67,0.00,,,0.00,meteohub,2013-01-23 03:39:00,
2013-01-22 21:44:00,24.8,15.4,30.32,SW,225,0.0,1.0,67,0.00,,,0.00,meteohub,2013-01-23 03:44:00,
2013-01-22 21:49:00,25.0,15.6,30.32,SW,225,0.0,0.0,67,0.00,,,0.00,meteohub,2013-01-23 03:49:00,
2013-01-22 21:54:00,25.0,15.6,30.32,ESE,113,0.0,0.0,67,0.00,,,0.00,meteohub,2013-01-23 03:54:00,
2013-01-22 21:59:00,24.6,15.3,30.32,SSE,158,0.0,0.0,67,0.00,,,0.00,meteohub,2013-01-23 03:59:00,
2013-01-22 22:04:00,24.6,15.3,30.32,ESE,113,0.0,0.0,67,0.00,,,0.00,meteohub,2013-01-23 04:04:00,
2013-01-22 22:09:00,25.0,16.0,30.32,SSE,158,0.0,0.0,68,0.00,,,0.00,meteohub,2013-01-23 04:09:00,
2013-01-22 22:14:00,24.8,15.8,30.32,SE,135,0.0,0.0,68,0.00,,,0.00,meteohub,2013-01-23 04:14:00,
2013-01-22 22:19:00,25.0,16.0,30.32,East,90,0.0,0.0,68,0.00,,,0.00,meteohub,2013-01-23 04:19:00,
2013-01-22 22:24:00,25.3,16.3,30.32,SE,135,0.0,1.0,68,0.00,,,0.00,meteohub,2013-01-23 04:24:00,
2013-01-22 22:29:00,25.2,16.2,30.30,SE,135,0.0,1.0,68,0.00,,,0.00,meteohub,2013-01-23 04:29:00,
2013-01-22 22:34:00,25.3,16.3,30.30,East,90,0.0,1.0,68,0.00,,,0.00,meteohub,2013-01-23 04:34:00,
2013-01-22 22:39:00,25.3,16.3,30.30,SE,135,0.0,0.0,68,0.00,,,0.00,meteohub,2013-01-23 04:39:00,
2013-01-22 22:44:00,25.0,16.0,30.30,South,180,0.0,0.0,68,0.00,,,0.00,meteohub,2013-01-23 04:44:00,
2013-01-22 22:49:00,24.8,15.8,30.29,SE,135,0.0,0.0,68,0.00,,,0.00,meteohub,2013-01-23 04:49:00,
2013-01-22 22:54:00,25.0,16.0,30.29,SE,135,0.0,0.0,68,0.00,,,0.00,meteohub,2013-01-23 04:54:00,
2013-01-22 22:59:00,24.8,15.8,30.29,SE,135,0.0,0.0,68,0.00,,,0.00,meteohub,2013-01-23 04:59:00,
2013-01-22 23:00:00,24.8,15.8,30.29,SE,135,0.0,0.0,68,0.00,,,0.00,meteohub,2013-01-23 05:00:00,
2013-01-22 23:03:00,25.0,16.0,30.29,SE,135,0.0,0.0,68,0.00,,,0.00,meteohub,2013-01-23 05:03:00,
2013-01-22 23:08:00,24.6,15.6,30.30,SE,135,0.0,0.0,68,0.00,,,0.00,meteohub,2013-01-23 05:08:00,
2013-01-22 23:13:00,24.6,16.0,30.30,SE,135,0.0,0.0,69,0.00,,,0.00,meteohub,2013-01-23 05:13:00,
2013-01-22 23:18:00,24.3,15.6,30.30,SE,135,0.0,0.0,69,0.00,,,0.00,meteohub,2013-01-23 05:18:00,
2013-01-22 23:23:00,24.3,15.6,30.30,SE,135,0.0,0.0,69,0.00,,,0.00,meteohub,2013-01-23 05:23:00,
2013-01-22 23:28:00,23.9,15.3,30.29,SE,135,0.0,0.0,69,0.00,,,0.00,meteohub,2013-01-23 05:28:00,
2013-01-22 23:33:00,23.9,15.3,30.29,SE,135,0.0,0.0,69,0.00,,,0.00,meteohub,2013-01-23 05:33:00,
2013-01-22 23:38:00,23.5,14.9,30.29,SE,135,0.0,0.0,69,0.00,,,0.00,meteohub,2013-01-23 05:38:00,
2013-01-22 23:44:00,23.2,14.9,30.29,SSE,158,0.0,0.0,70,0.00,,,0.00,meteohub,2013-01-23 05:44:00,
2013-01-22 23:49:00,23.2,14.9,30.29,South,180,0.0,0.0,70,0.00,,,0.00,meteohub,2013-01-23 05:49:00,
2013-01-22 23:54:00,22.8,14.5,30.29,South,180,0.0,0.0,70,0.00,,,0.00,meteohub,2013-01-23 05:54:00,
2013-01-22 23:59:00,22.8,14.9,30.29,South,180,0.0,0.0,71,0.00,,,0.00,meteohub,2013-01-23 05:59:00,